sensor_id;sensor_type;location;lat;lon;timestamp;pressure;altitude;pressure_sealevel;temperature;humidity
48926;BME280;39838;59.938;30.642;2023-07-24T00:01:05;99503.50;;;14.38;73.87
48926;BME280;39838;59.938;30.642;2023-07-24T00:03:33;99502.66;;;14.36;73.95
48926;BME280;39838;59.938;30.642;2023-07-24T00:06:00;99500.97;;;14.35;74.01
48926;BME280;39838;59.938;30.642;2023-07-24T00:08:29;99493.13;;;14.35;74.12
48926;BME280;39838;59.938;30.642;2023-07-24T00:10:56;99498.34;;;14.35;73.68
48926;BME280;39838;59.938;30.642;2023-07-24T00:13:24;99504.59;;;14.31;74.16
48926;BME280;39838;59.938;30.642;2023-07-24T00:15:51;99502.91;;;14.28;74.01
48926;BME280;39838;59.938;30.642;2023-07-24T00:18:18;99496.88;;;14.26;73.97
48926;BME280;39838;59.938;30.642;2023-07-24T00:20:46;99497.03;;;14.21;74.42
48926;BME280;39838;59.938;30.642;2023-07-24T00:23:13;99498.03;;;14.17;74.66
48926;BME280;39838;59.938;30.642;2023-07-24T00:25:41;99493.78;;;14.13;74.53
48926;BME280;39838;59.938;30.642;2023-07-24T00:28:09;99493.91;;;14.10;74.64
48926;BME280;39838;59.938;30.642;2023-07-24T00:30:36;99494.81;;;14.08;74.75
48926;BME280;39838;59.938;30.642;2023-07-24T00:33:03;99499.31;;;14.04;74.84
48926;BME280;39838;59.938;30.642;2023-07-24T00:35:30;99485.53;;;13.99;75.00
48926;BME280;39838;59.938;30.642;2023-07-24T00:37:57;99486.56;;;13.93;75.26
48926;BME280;39838;59.938;30.642;2023-07-24T00:40:24;99480.66;;;13.87;75.44
48926;BME280;39838;59.938;30.642;2023-07-24T00:42:53;99475.63;;;13.81;75.64
48926;BME280;39838;59.938;30.642;2023-07-24T00:45:21;99478.31;;;13.78;76.21
48926;BME280;39838;59.938;30.642;2023-07-24T00:47:49;99476.75;;;13.72;75.93
48926;BME280;39838;59.938;30.642;2023-07-24T00:50:18;99476.00;;;13.69;76.29
48926;BME280;39838;59.938;30.642;2023-07-24T00:52:46;99480.34;;;13.68;76.77
48926;BME280;39838;59.938;30.642;2023-07-24T00:55:14;99477.78;;;13.66;76.81
48926;BME280;39838;59.938;30.642;2023-07-24T00:57:43;99485.59;;;13.66;77.00
48926;BME280;39838;59.938;30.642;2023-07-24T01:00:12;99473.41;;;13.67;76.67
48926;BME280;39838;59.938;30.642;2023-07-24T01:02:40;99480.47;;;13.63;76.94
48926;BME280;39838;59.938;30.642;2023-07-24T01:05:07;99474.44;;;13.61;77.67
48926;BME280;39838;59.938;30.642;2023-07-24T01:07:35;99471.03;;;13.59;77.77
48926;BME280;39838;59.938;30.642;2023-07-24T01:10:03;99474.53;;;13.58;77.91
48926;BME280;39838;59.938;30.642;2023-07-24T01:12:35;99474.47;;;13.60;77.70
48926;BME280;39838;59.938;30.642;2023-07-24T01:15:07;99451.38;;;13.46;77.88
48926;BME280;39838;59.938;30.642;2023-07-24T01:17:42;99476.25;;;13.59;77.29
48926;BME280;39838;59.938;30.642;2023-07-24T01:20:12;99471.13;;;13.56;77.86
48926;BME280;39838;59.938;30.642;2023-07-24T01:22:53;99467.72;;;13.53;77.68
48926;BME280;39838;59.938;30.642;2023-07-24T01:25:28;99448.88;;;13.43;78.01
48926;BME280;39838;59.938;30.642;2023-07-24T01:27:59;99471.97;;;13.57;77.91
48926;BME280;39838;59.938;30.642;2023-07-24T01:30:26;99460.75;;;13.53;78.00
48926;BME280;39838;59.938;30.642;2023-07-24T01:32:54;99464.38;;;13.49;78.11
48926;BME280;39838;59.938;30.642;2023-07-24T01:35:21;99466.25;;;13.44;78.26
48926;BME280;39838;59.938;30.642;2023-07-24T01:37:49;99468.13;;;13.39;78.43
48926;BME280;39838;59.938;30.642;2023-07-24T01:40:16;99465.50;;;13.39;78.55
48926;BME280;39838;59.938;30.642;2023-07-24T01:42:45;99454.31;;;13.35;78.74
48926;BME280;39838;59.938;30.642;2023-07-24T01:45:14;99456.06;;;13.35;78.60
48926;BME280;39838;59.938;30.642;2023-07-24T01:47:41;99464.78;;;13.34;78.57
48926;BME280;39838;59.938;30.642;2023-07-24T01:50:09;99460.47;;;13.33;78.46
48926;BME280;39838;59.938;30.642;2023-07-24T01:52:36;99461.41;;;13.30;78.50
48926;BME280;39838;59.938;30.642;2023-07-24T01:55:04;99462.38;;;13.28;78.66
48926;BME280;39838;59.938;30.642;2023-07-24T01:57:32;99465.88;;;13.25;78.70
48926;BME280;39838;59.938;30.642;2023-07-24T01:59:59;99468.44;;;13.27;78.68
48926;BME280;39838;59.938;30.642;2023-07-24T02:02:33;99460.63;;;13.27;78.71
48926;BME280;39838;59.938;30.642;2023-07-24T02:05:00;99458.91;;;13.26;79.13
48926;BME280;39838;59.938;30.642;2023-07-24T02:07:32;99458.91;;;13.26;79.18
48926;BME280;39838;59.938;30.642;2023-07-24T02:09:59;99468.44;;;13.27;79.29
48926;BME280;39838;59.938;30.642;2023-07-24T02:12:27;99457.94;;;13.30;79.53
48926;BME280;39838;59.938;30.642;2023-07-24T02:14:54;99455.25;;;13.33;79.73
48926;BME280;39838;59.938;30.642;2023-07-24T02:17:23;99453.47;;;13.33;79.53
48926;BME280;39838;59.938;30.642;2023-07-24T02:19:52;99455.25;;;13.33;79.49
48926;BME280;39838;59.938;30.642;2023-07-24T02:22:19;99462.09;;;13.37;79.43
48926;BME280;39838;59.938;30.642;2023-07-24T02:24:46;99453.31;;;13.39;79.64
48926;BME280;39838;59.938;30.642;2023-07-24T02:27:24;99450.66;;;13.41;79.60
48926;BME280;39838;59.938;30.642;2023-07-24T02:29:52;99450.66;;;13.41;79.60
48926;BME280;39838;59.938;30.642;2023-07-24T02:32:19;99454.91;;;13.45;79.85
48926;BME280;39838;59.938;30.642;2023-07-24T02:34:48;99460.06;;;13.48;79.60
48926;BME280;39838;59.938;30.642;2023-07-24T02:37:17;99457.34;;;13.51;79.52
48926;BME280;39838;59.938;30.642;2023-07-24T02:39:45;99453.75;;;13.55;79.66
48926;BME280;39838;59.938;30.642;2023-07-24T02:42:12;99457.06;;;13.62;79.52
48926;BME280;39838;59.938;30.642;2023-07-24T02:44:39;99457.75;;;13.67;79.31
48926;BME280;39838;59.938;30.642;2023-07-24T02:47:06;99458.53;;;13.71;79.28
48926;BME280;39838;59.938;30.642;2023-07-24T02:49:33;99453.06;;;13.78;79.01
48926;BME280;39838;59.938;30.642;2023-07-24T02:52:01;99458.06;;;13.86;78.91
48926;BME280;39838;59.938;30.642;2023-07-24T02:54:29;99453.56;;;13.91;78.54
48926;BME280;39838;59.938;30.642;2023-07-24T02:56:56;99453.47;;;13.94;78.74
48926;BME280;39838;59.938;30.642;2023-07-24T02:59:24;99457.69;;;13.98;78.61
48926;BME280;39838;59.938;30.642;2023-07-24T03:01:51;99452.38;;;14.01;78.66
48926;BME280;39838;59.938;30.642;2023-07-24T03:04:18;99456.66;;;14.04;78.80
48926;BME280;39838;59.938;30.642;2023-07-24T03:06:45;99443.59;;;14.04;78.82
48926;BME280;39838;59.938;30.642;2023-07-24T03:09:12;99447.69;;;14.12;78.27
48926;BME280;39838;59.938;30.642;2023-07-24T03:11:41;99449.44;;;14.12;78.76
48926;BME280;39838;59.938;30.642;2023-07-24T03:14:08;99446.78;;;14.13;78.59
48926;BME280;39838;59.938;30.642;2023-07-24T03:16:36;99452.78;;;14.17;78.74
48926;BME280;39838;59.938;30.642;2023-07-24T03:19:03;99450.84;;;14.22;78.79
48926;BME280;39838;59.938;30.642;2023-07-24T03:21:30;99455.03;;;14.28;78.89
48926;BME280;39838;59.938;30.642;2023-07-24T03:23:57;99453.91;;;14.36;78.53
48926;BME280;39838;59.938;30.642;2023-07-24T03:26:24;99454.47;;;14.46;78.19
48926;BME280;39838;59.938;30.642;2023-07-24T03:28:53;99445.41;;;14.56;77.90
48926;BME280;39838;59.938;30.642;2023-07-24T03:31:20;99449.50;;;14.65;77.99
48926;BME280;39838;59.938;30.642;2023-07-24T03:33:47;99451.66;;;14.79;77.68
48926;BME280;39838;59.938;30.642;2023-07-24T03:36:14;99450.56;;;14.86;77.32
48926;BME280;39838;59.938;30.642;2023-07-24T03:38:42;99445.13;;;14.92;77.08
48926;BME280;39838;59.938;30.642;2023-07-24T03:41:09;99451.84;;;14.99;77.10
48926;BME280;39838;59.938;30.642;2023-07-24T03:43:36;99443.81;;;15.03;76.81
48926;BME280;39838;59.938;30.642;2023-07-24T03:46:04;99454.91;;;15.10;76.88
48926;BME280;39838;59.938;30.642;2023-07-24T03:48:31;99450.38;;;15.15;76.63
48926;BME280;39838;59.938;30.642;2023-07-24T03:51:00;99446.75;;;15.19;76.53
48926;BME280;39838;59.938;30.642;2023-07-24T03:53:28;99450.97;;;15.23;76.14
48926;BME280;39838;59.938;30.642;2023-07-24T03:55:55;99450.72;;;15.31;76.34
48926;BME280;39838;59.938;30.642;2023-07-24T03:58:22;99453.84;;;15.41;75.93
48926;BME280;39838;59.938;30.642;2023-07-24T04:00:48;99452.84;;;15.45;75.33
48926;BME280;39838;59.938;30.642;2023-07-24T04:03:17;99444.06;;;15.46;75.10
48926;BME280;39838;59.938;30.642;2023-07-24T04:05:44;99449.06;;;15.52;75.39
48926;BME280;39838;59.938;30.642;2023-07-24T04:08:11;99440.19;;;15.56;75.04
48926;BME280;39838;59.938;30.642;2023-07-24T04:10:38;99441.88;;;15.57;75.17
48926;BME280;39838;59.938;30.642;2023-07-24T04:13:05;99444.47;;;15.59;75.16
48926;BME280;39838;59.938;30.642;2023-07-24T04:15:33;99448.59;;;15.66;74.91
48926;BME280;39838;59.938;30.642;2023-07-24T04:18:00;99443.97;;;15.72;74.74
48926;BME280;39838;59.938;30.642;2023-07-24T04:20:28;99445.56;;;15.76;74.46
48926;BME280;39838;59.938;30.642;2023-07-24T04:22:55;99444.41;;;15.83;74.43
48926;BME280;39838;59.938;30.642;2023-07-24T04:25:23;99442.59;;;15.86;74.24
48926;BME280;39838;59.938;30.642;2023-07-24T04:27:50;99438.09;;;15.89;74.11
48926;BME280;39838;59.938;30.642;2023-07-24T04:30:17;99450.78;;;16.00;73.98
48926;BME280;39838;59.938;30.642;2023-07-24T04:32:44;99439.94;;;16.09;73.76
48926;BME280;39838;59.938;30.642;2023-07-24T04:35:12;99436.75;;;16.23;73.48
48926;BME280;39838;59.938;30.642;2023-07-24T04:37:40;99450.31;;;16.34;72.99
48926;BME280;39838;59.938;30.642;2023-07-24T04:40:08;99440.97;;;16.49;72.58
48926;BME280;39838;59.938;30.642;2023-07-24T04:42:36;99442.88;;;16.65;72.06
48926;BME280;39838;59.938;30.642;2023-07-24T04:45:04;99443.72;;;16.88;71.57
48926;BME280;39838;59.938;30.642;2023-07-24T04:47:32;99443.00;;;17.05;70.86
48926;BME280;39838;59.938;30.642;2023-07-24T04:49:59;99438.22;;;17.14;70.43
48926;BME280;39838;59.938;30.642;2023-07-24T04:52:26;99438.47;;;17.29;69.80
48926;BME280;39838;59.938;30.642;2023-07-24T04:54:55;99421.78;;;17.30;69.32
48926;BME280;39838;59.938;30.642;2023-07-24T04:57:22;99441.91;;;17.50;68.93
48926;BME280;39838;59.938;30.642;2023-07-24T04:59:49;99432.75;;;17.58;68.50
48926;BME280;39838;59.938;30.642;2023-07-24T05:02:16;99433.31;;;17.65;68.07
48926;BME280;39838;59.938;30.642;2023-07-24T05:04:44;99429.75;;;17.66;67.90
48926;BME280;39838;59.938;30.642;2023-07-24T05:07:11;99431.22;;;17.73;67.84
48926;BME280;39838;59.938;30.642;2023-07-24T05:09:38;99420.72;;;17.73;67.33
48926;BME280;39838;59.938;30.642;2023-07-24T05:12:07;99421.28;;;17.80;67.08
48926;BME280;39838;59.938;30.642;2023-07-24T05:14:34;99422.19;;;17.79;66.99
48926;BME280;39838;59.938;30.642;2023-07-24T05:17:01;99417.66;;;17.82;66.66
48926;BME280;39838;59.938;30.642;2023-07-24T05:19:29;99415.03;;;17.82;66.34
48926;BME280;39838;59.938;30.642;2023-07-24T05:21:56;99410.06;;;17.76;66.46
48926;BME280;39838;59.938;30.642;2023-07-24T05:24:24;99409.16;;;17.77;66.52
48926;BME280;39838;59.938;30.642;2023-07-24T05:26:52;99402.81;;;17.81;66.46
48926;BME280;39838;59.938;30.642;2023-07-24T05:29:20;99418.00;;;17.93;66.30
48926;BME280;39838;59.938;30.642;2023-07-24T05:31:47;99403.66;;;18.00;65.71
48926;BME280;39838;59.938;30.642;2023-07-24T05:34:14;99416.78;;;18.00;64.96
48926;BME280;39838;59.938;30.642;2023-07-24T05:36:41;99405.97;;;18.07;64.97
48926;BME280;39838;59.938;30.642;2023-07-24T05:39:09;99402.22;;;18.12;64.79
48926;BME280;39838;59.938;30.642;2023-07-24T05:41:36;99409.72;;;18.20;64.37
48926;BME280;39838;59.938;30.642;2023-07-24T05:44:03;99398.06;;;18.25;63.93
48926;BME280;39838;59.938;30.642;2023-07-24T05:46:32;99404.03;;;18.29;63.75
48926;BME280;39838;59.938;30.642;2023-07-24T05:48:59;99408.28;;;18.32;63.41
48926;BME280;39838;59.938;30.642;2023-07-24T05:51:27;99398.31;;;18.38;62.90
48926;BME280;39838;59.938;30.642;2023-07-24T05:53:54;99406.28;;;18.37;62.30
48926;BME280;39838;59.938;30.642;2023-07-24T05:56:21;99417.09;;;18.31;62.40
48926;BME280;39838;59.938;30.642;2023-07-24T05:58:49;99414.00;;;18.22;62.19
48926;BME280;39838;59.938;30.642;2023-07-24T06:01:16;99402.94;;;18.16;62.71
48926;BME280;39838;59.938;30.642;2023-07-24T06:03:45;99402.84;;;18.17;62.30
48926;BME280;39838;59.938;30.642;2023-07-24T06:06:12;99401.31;;;18.31;61.75
48926;BME280;39838;59.938;30.642;2023-07-24T06:08:40;99394.91;;;18.36;61.16
48926;BME280;39838;59.938;30.642;2023-07-24T06:11:07;99391.59;;;18.50;61.01
48926;BME280;39838;59.938;30.642;2023-07-24T06:13:34;99391.75;;;18.64;60.68
48926;BME280;39838;59.938;30.642;2023-07-24T06:16:01;99389.59;;;18.90;60.25
48926;BME280;39838;59.938;30.642;2023-07-24T06:18:28;99407.75;;;19.12;59.40
48926;BME280;39838;59.938;30.642;2023-07-24T06:20:57;99395.44;;;19.12;58.57
48926;BME280;39838;59.938;30.642;2023-07-24T06:23:24;99401.78;;;19.08;58.80
48926;BME280;39838;59.938;30.642;2023-07-24T06:25:51;99393.38;;;19.01;58.89
48926;BME280;39838;59.938;30.642;2023-07-24T06:28:19;99400.06;;;18.91;58.87
48926;BME280;39838;59.938;30.642;2023-07-24T06:30:46;99390.06;;;18.80;58.91
48926;BME280;39838;59.938;30.642;2023-07-24T06:33:13;99396.03;;;18.84;59.03
48926;BME280;39838;59.938;30.642;2023-07-24T06:35:40;99392.84;;;18.95;58.26
48926;BME280;39838;59.938;30.642;2023-07-24T06:38:09;99396.63;;;19.06;58.09
48926;BME280;39838;59.938;30.642;2023-07-24T06:40:36;99402.41;;;19.13;57.80
48926;BME280;39838;59.938;30.642;2023-07-24T06:43:03;99398.28;;;19.25;57.28
48926;BME280;39838;59.938;30.642;2023-07-24T06:45:30;99392.63;;;19.32;56.96
48926;BME280;39838;59.938;30.642;2023-07-24T06:47:57;99386.94;;;19.40;56.69
48926;BME280;39838;59.938;30.642;2023-07-24T06:50:25;99383.78;;;19.49;56.08
48926;BME280;39838;59.938;30.642;2023-07-24T06:52:52;99375.53;;;19.73;55.71
48926;BME280;39838;59.938;30.642;2023-07-24T06:55:21;99381.47;;;19.92;55.14
48926;BME280;39838;59.938;30.642;2023-07-24T06:57:48;99376.78;;;20.13;54.64
48926;BME280;39838;59.938;30.642;2023-07-24T07:00:15;99369.38;;;20.20;54.27
48926;BME280;39838;59.938;30.642;2023-07-24T07:02:43;99372.34;;;20.13;54.33
48926;BME280;39838;59.938;30.642;2023-07-24T07:05:10;99369.13;;;20.08;54.08
48926;BME280;39838;59.938;30.642;2023-07-24T07:07:37;99367.78;;;20.01;53.81
48926;BME280;39838;59.938;30.642;2023-07-24T07:10:05;99355.47;;;19.86;53.66
48926;BME280;39838;59.938;30.642;2023-07-24T07:12:34;99365.84;;;19.73;54.02
48926;BME280;39838;59.938;30.642;2023-07-24T07:15:01;99370.41;;;19.70;54.19
48926;BME280;39838;59.938;30.642;2023-07-24T07:17:31;99368.47;;;19.73;54.06
48926;BME280;39838;59.938;30.642;2023-07-24T07:19:58;99367.28;;;19.79;54.15
48926;BME280;39838;59.938;30.642;2023-07-24T07:22:25;99365.84;;;19.73;54.46
48926;BME280;39838;59.938;30.642;2023-07-24T07:24:52;99365.66;;;19.60;54.55
48926;BME280;39838;59.938;30.642;2023-07-24T07:27:20;99371.03;;;19.59;54.63
48926;BME280;39838;59.938;30.642;2023-07-24T07:29:48;99376.94;;;19.62;54.27
48926;BME280;39838;59.938;30.642;2023-07-24T07:32:15;99367.34;;;19.61;54.17
48926;BME280;39838;59.938;30.642;2023-07-24T07:34:43;99366.41;;;19.62;53.71
48926;BME280;39838;59.938;30.642;2023-07-24T07:37:10;99374.94;;;19.68;53.63
48926;BME280;39838;59.938;30.642;2023-07-24T07:39:37;99373.03;;;19.70;53.40
48926;BME280;39838;59.938;30.642;2023-07-24T07:42:04;99367.34;;;19.77;53.32
48926;BME280;39838;59.938;30.642;2023-07-24T07:44:32;99359.53;;;19.76;53.10
48926;BME280;39838;59.938;30.642;2023-07-24T07:47:00;99364.03;;;19.74;53.03
48926;BME280;39838;59.938;30.642;2023-07-24T07:49:27;99363.38;;;19.86;53.05
48926;BME280;39838;59.938;30.642;2023-07-24T07:51:55;99355.13;;;19.92;52.27
48926;BME280;39838;59.938;30.642;2023-07-24T07:54:23;99359.28;;;19.80;52.55
48926;BME280;39838;59.938;30.642;2023-07-24T07:56:50;99357.25;;;19.85;52.48
48926;BME280;39838;59.938;30.642;2023-07-24T07:59:18;99349.75;;;19.78;52.64
48926;BME280;39838;59.938;30.642;2023-07-24T08:01:45;99360.22;;;19.79;52.62
48926;BME280;39838;59.938;30.642;2023-07-24T08:04:14;99359.38;;;19.79;52.62
48926;BME280;39838;59.938;30.642;2023-07-24T08:06:43;99352.22;;;19.81;52.72
48926;BME280;39838;59.938;30.642;2023-07-24T08:09:10;99363.94;;;19.91;52.69
48926;BME280;39838;59.938;30.642;2023-07-24T08:11:38;99349.47;;;19.98;52.19
48926;BME280;39838;59.938;30.642;2023-07-24T08:14:05;99347.84;;;20.11;51.61
48926;BME280;39838;59.938;30.642;2023-07-24T08:16:32;99346.75;;;20.15;51.73
48926;BME280;39838;59.938;30.642;2023-07-24T08:18:59;99341.28;;;20.18;51.90
48926;BME280;39838;59.938;30.642;2023-07-24T08:21:28;99353.91;;;20.13;51.95
48926;BME280;39838;59.938;30.642;2023-07-24T08:23:55;99351.19;;;19.99;52.24
48926;BME280;39838;59.938;30.642;2023-07-24T08:26:23;99362.34;;;19.88;52.30
48926;BME280;39838;59.938;30.642;2023-07-24T08:28:52;99361.22;;;19.77;52.82
48926;BME280;39838;59.938;30.642;2023-07-24T08:31:19;99356.91;;;19.76;52.61
48926;BME280;39838;59.938;30.642;2023-07-24T08:33:46;99360.63;;;19.87;52.78
48926;BME280;39838;59.938;30.642;2023-07-24T08:36:14;99359.69;;;19.88;53.05
48926;BME280;39838;59.938;30.642;2023-07-24T08:38:43;99365.72;;;19.90;52.71
48926;BME280;39838;59.938;30.642;2023-07-24T08:41:11;99360.06;;;19.67;52.82
48926;BME280;39838;59.938;30.642;2023-07-24T08:43:40;99360.75;;;19.37;53.06
48926;BME280;39838;59.938;30.642;2023-07-24T08:46:09;99364.81;;;19.11;53.85
48926;BME280;39838;59.938;30.642;2023-07-24T08:48:37;99370.00;;;18.95;54.66
48926;BME280;39838;59.938;30.642;2023-07-24T08:51:05;99368.94;;;18.82;55.14
48926;BME280;39838;59.938;30.642;2023-07-24T08:53:33;99372.22;;;18.70;55.29
48926;BME280;39838;59.938;30.642;2023-07-24T08:56:04;99386.25;;;18.51;56.21
48926;BME280;39838;59.938;30.642;2023-07-24T08:58:32;99373.56;;;18.42;56.57
48926;BME280;39838;59.938;30.642;2023-07-24T09:01:00;99378.22;;;18.37;56.97
48926;BME280;39838;59.938;30.642;2023-07-24T09:03:28;99384.94;;;18.43;57.32
48926;BME280;39838;59.938;30.642;2023-07-24T09:05:57;99390.59;;;18.52;57.25
48926;BME280;39838;59.938;30.642;2023-07-24T09:08:30;99390.41;;;18.55;57.11
48926;BME280;39838;59.938;30.642;2023-07-24T09:10:58;99377.34;;;18.54;57.24
48926;BME280;39838;59.938;30.642;2023-07-24T09:13:27;99379.59;;;18.62;56.98
48926;BME280;39838;59.938;30.642;2023-07-24T09:15:55;99393.53;;;18.64;57.24
48926;BME280;39838;59.938;30.642;2023-07-24T09:18:22;99396.56;;;18.73;57.27
48926;BME280;39838;59.938;30.642;2023-07-24T09:20:49;99395.25;;;18.65;57.48
48926;BME280;39838;59.938;30.642;2023-07-24T09:23:26;99388.13;;;18.49;57.91
48926;BME280;39838;59.938;30.642;2023-07-24T09:25:53;99401.41;;;18.46;58.52
48926;BME280;39838;59.938;30.642;2023-07-24T09:28:21;99393.34;;;18.32;59.32
48926;BME280;39838;59.938;30.642;2023-07-24T09:30:54;99402.56;;;18.23;60.31
48926;BME280;39838;59.938;30.642;2023-07-24T09:33:22;99402.00;;;18.17;60.76
48926;BME280;39838;59.938;30.642;2023-07-24T09:35:58;99400.81;;;18.05;60.80
48926;BME280;39838;59.938;30.642;2023-07-24T09:38:26;99403.59;;;18.02;60.99
48926;BME280;39838;59.938;30.642;2023-07-24T09:40:54;99402.41;;;17.90;61.34
48926;BME280;39838;59.938;30.642;2023-07-24T09:43:23;99392.28;;;17.81;61.65
48926;BME280;39838;59.938;30.642;2023-07-24T09:45:53;99399.00;;;17.88;61.83
48926;BME280;39838;59.938;30.642;2023-07-24T09:48:21;99369.16;;;17.89;61.49
48926;BME280;39838;59.938;30.642;2023-07-24T09:50:52;99387.44;;;18.10;61.37
48926;BME280;39838;59.938;30.642;2023-07-24T09:53:22;99393.66;;;18.26;61.18
48926;BME280;39838;59.938;30.642;2023-07-24T09:55:57;99385.94;;;18.40;60.89
48926;BME280;39838;59.938;30.642;2023-07-24T09:58:25;99386.03;;;18.56;61.41
48926;BME280;39838;59.938;30.642;2023-07-24T10:00:55;99386.06;;;18.73;60.55
48926;BME280;39838;59.938;30.642;2023-07-24T10:03:22;99382.31;;;18.95;60.43
48926;BME280;39838;59.938;30.642;2023-07-24T10:05:49;99376.28;;;19.26;59.34
48926;BME280;39838;59.938;30.642;2023-07-24T10:08:18;99389.38;;;19.60;58.59
48926;BME280;39838;59.938;30.642;2023-07-24T10:10:45;99381.97;;;19.99;57.40
48926;BME280;39838;59.938;30.642;2023-07-24T10:13:17;99374.44;;;20.23;56.87
48926;BME280;39838;59.938;30.642;2023-07-24T10:15:46;99371.41;;;20.14;56.52
48926;BME280;39838;59.938;30.642;2023-07-24T10:18:16;99385.88;;;20.07;56.12
48926;BME280;39838;59.938;30.642;2023-07-24T10:20:44;99389.09;;;19.97;55.66
48926;BME280;39838;59.938;30.642;2023-07-24T10:23:16;99368.03;;;19.81;55.01
48926;BME280;39838;59.938;30.642;2023-07-24T10:25:45;99376.88;;;19.80;55.11
48926;BME280;39838;59.938;30.642;2023-07-24T10:28:12;99393.38;;;19.50;55.69
48926;BME280;39838;59.938;30.642;2023-07-24T10:30:42;99394.31;;;19.33;56.37
48926;BME280;39838;59.938;30.642;2023-07-24T10:33:11;99394.41;;;19.32;56.33
48926;BME280;39838;59.938;30.642;2023-07-24T10:35:43;99382.94;;;19.33;54.90
48926;BME280;39838;59.938;30.642;2023-07-24T10:38:12;99392.69;;;19.31;55.28
48926;BME280;39838;59.938;30.642;2023-07-24T10:40:39;99386.22;;;19.21;55.36
48926;BME280;39838;59.938;30.642;2023-07-24T10:43:07;99379.59;;;19.29;55.33
48926;BME280;39838;59.938;30.642;2023-07-24T10:45:40;99387.44;;;19.31;55.32
48926;BME280;39838;59.938;30.642;2023-07-24T10:48:07;99386.19;;;19.38;55.57
48926;BME280;39838;59.938;30.642;2023-07-24T10:50:38;99386.94;;;19.56;55.38
48926;BME280;39838;59.938;30.642;2023-07-24T10:53:08;99381.56;;;19.75;55.20
48926;BME280;39838;59.938;30.642;2023-07-24T10:55:35;99382.91;;;19.98;54.69
48926;BME280;39838;59.938;30.642;2023-07-24T10:58:02;99379.31;;;20.14;53.35
48926;BME280;39838;59.938;30.642;2023-07-24T11:00:30;99383.56;;;20.33;52.47
48926;BME280;39838;59.938;30.642;2023-07-24T11:02:57;99373.81;;;20.49;52.16
48926;BME280;39838;59.938;30.642;2023-07-24T11:05:24;99350.13;;;20.63;50.82
48926;BME280;39838;59.938;30.642;2023-07-24T11:07:52;99352.09;;;20.60;50.56
48926;BME280;39838;59.938;30.642;2023-07-24T11:10:22;99360.38;;;20.54;51.09
48926;BME280;39838;59.938;30.642;2023-07-24T11:12:49;99356.53;;;20.59;51.52
48926;BME280;39838;59.938;30.642;2023-07-24T11:15:23;99345.59;;;20.65;51.80
48926;BME280;39838;59.938;30.642;2023-07-24T11:17:51;99350.78;;;20.67;52.13
48926;BME280;39838;59.938;30.642;2023-07-24T11:20:19;99350.13;;;20.78;52.33
48926;BME280;39838;59.938;30.642;2023-07-24T11:22:46;99342.31;;;20.76;52.26
48926;BME280;39838;59.938;30.642;2023-07-24T11:25:14;99327.69;;;20.70;52.11
48926;BME280;39838;59.938;30.642;2023-07-24T11:27:43;99346.38;;;20.82;52.25
48926;BME280;39838;59.938;30.642;2023-07-24T11:30:12;99343.91;;;20.93;51.57
48926;BME280;39838;59.938;30.642;2023-07-24T11:32:40;99352.25;;;21.01;51.79
48926;BME280;39838;59.938;30.642;2023-07-24T11:35:08;99345.44;;;21.25;51.84
48926;BME280;39838;59.938;30.642;2023-07-24T11:37:36;99355.47;;;21.35;51.55
48926;BME280;39838;59.938;30.642;2023-07-24T11:40:04;99340.16;;;21.25;51.35
48926;BME280;39838;59.938;30.642;2023-07-24T11:42:39;99336.56;;;21.12;51.21
48926;BME280;39838;59.938;30.642;2023-07-24T11:45:09;99333.84;;;20.99;51.70
48926;BME280;39838;59.938;30.642;2023-07-24T11:47:44;99331.97;;;20.73;51.40
48926;BME280;39838;59.938;30.642;2023-07-24T11:50:11;99344.00;;;20.77;51.40
48926;BME280;39838;59.938;30.642;2023-07-24T11:52:40;99362.94;;;20.69;50.21
48926;BME280;39838;59.938;30.642;2023-07-24T11:55:09;99344.94;;;20.76;50.44
48926;BME280;39838;59.938;30.642;2023-07-24T11:57:36;99345.16;;;21.02;50.81
48926;BME280;39838;59.938;30.642;2023-07-24T12:00:05;99347.13;;;21.12;50.98
48926;BME280;39838;59.938;30.642;2023-07-24T12:02:34;99351.66;;;21.10;50.90
48926;BME280;39838;59.938;30.642;2023-07-24T12:05:01;99351.47;;;21.13;50.79
48926;BME280;39838;59.938;30.642;2023-07-24T12:07:32;99347.50;;;21.06;50.58
48926;BME280;39838;59.938;30.642;2023-07-24T12:10:00;99340.53;;;21.05;50.11
48926;BME280;39838;59.938;30.642;2023-07-24T12:12:40;99340.38;;;21.08;50.26
48926;BME280;39838;59.938;30.642;2023-07-24T12:15:08;99347.91;;;21.14;50.50
48926;BME280;39838;59.938;30.642;2023-07-24T12:17:37;99347.06;;;21.42;49.86
48926;BME280;39838;59.938;30.642;2023-07-24T12:20:05;99350.78;;;21.67;49.31
48926;BME280;39838;59.938;30.642;2023-07-24T12:22:34;99346.47;;;21.93;49.54
48926;BME280;39838;59.938;30.642;2023-07-24T12:25:01;99332.22;;;22.22;46.33
48926;BME280;39838;59.938;30.642;2023-07-24T12:27:32;99333.34;;;22.58;43.74
48926;BME280;39838;59.938;30.642;2023-07-24T12:30:00;99320.47;;;22.92;41.84
48926;BME280;39838;59.938;30.642;2023-07-24T12:32:32;99328.56;;;23.39;40.59
48926;BME280;39838;59.938;30.642;2023-07-24T12:35:00;99328.78;;;23.86;39.98
48926;BME280;39838;59.938;30.642;2023-07-24T12:37:30;99326.69;;;24.02;39.38
48926;BME280;39838;59.938;30.642;2023-07-24T12:39:57;99358.38;;;24.04;37.92
48926;BME280;39838;59.938;30.642;2023-07-24T12:42:24;99330.22;;;24.14;37.44
48926;BME280;39838;59.938;30.642;2023-07-24T12:44:52;99327.38;;;24.28;36.38
48926;BME280;39838;59.938;30.642;2023-07-24T12:47:19;99328.03;;;24.67;36.45
48926;BME280;39838;59.938;30.642;2023-07-24T12:49:46;99334.16;;;25.14;35.51
48926;BME280;39838;59.938;30.642;2023-07-24T12:52:16;99320.31;;;25.53;33.33
48926;BME280;39838;59.938;30.642;2023-07-24T12:54:43;99338.63;;;26.01;33.15